ESNI weather

CLOSED Kubbe Air Base
Kubbe, Västernorrlands län, Sweden

Public forecast

Using degrees Celsius for public forecast. Weather courtesy of forecast.io.

METAR (pilot weather report)

Closest report is Örnsköldsvik Airport, 31.3 nm (57.9 km) ESE. Retrieved 2019/09/22 21:20 UTC (0 seconds ago):

ESNO 222120Z AUTO 32004KT 9999 NCD M01/M02 Q1024

TAF (pilot weather forecast)

Forecast is more than 12 hours old.

Closest forecast is Örnsköldsvik Airport, 31.3 nm (57.9 km) ESE. Retrieved 2015/08/24 09:33 UTC (4 years ago):

TAF ESNO 240830Z 2409/2424 18004KT CAVOK